sensor_id;sensor_type;location;lat;lon;timestamp;P1;durP1;ratioP1;P2;durP2;ratioP2
44000;SDS011;29660;42.892;24.710;2023-02-15T00:00:39;301.45;;;176.05;;
44000;SDS011;29660;42.892;24.710;2023-02-15T00:05:41;301.90;;;173.07;;
44000;SDS011;29660;42.892;24.710;2023-02-15T00:10:43;275.45;;;163.80;;
44000;SDS011;29660;42.892;24.710;2023-02-15T00:15:45;189.20;;;120.28;;
44000;SDS011;29660;42.892;24.710;2023-02-15T00:20:47;235.85;;;147.10;;
44000;SDS011;29660;42.892;24.710;2023-02-15T00:25:49;218.85;;;137.52;;
44000;SDS011;29660;42.892;24.710;2023-02-15T00:30:51;216.85;;;138.05;;
44000;SDS011;29660;42.892;24.710;2023-02-15T00:35:57;213.65;;;136.05;;
44000;SDS011;29660;42.892;24.710;2023-02-15T00:41:01;210.43;;;136.73;;
44000;SDS011;29660;42.892;24.710;2023-02-15T00:46:05;216.68;;;130.73;;
44000;SDS011;29660;42.892;24.710;2023-02-15T00:51:07;208.43;;;128.60;;
44000;SDS011;29660;42.892;24.710;2023-02-15T00:56:10;190.32;;;122.80;;
44000;SDS011;29660;42.892;24.710;2023-02-15T01:01:13;179.93;;;114.70;;
44000;SDS011;29660;42.892;24.710;2023-02-15T01:06:18;200.32;;;121.78;;
44000;SDS011;29660;42.892;24.710;2023-02-15T01:11:21;185.90;;;116.97;;
44000;SDS011;29660;42.892;24.710;2023-02-15T01:16:25;169.05;;;107.40;;
44000;SDS011;29660;42.892;24.710;2023-02-15T01:21:29;173.18;;;108.97;;
44000;SDS011;29660;42.892;24.710;2023-02-15T01:26:31;185.02;;;114.03;;
44000;SDS011;29660;42.892;24.710;2023-02-15T01:31:33;176.07;;;110.88;;
44000;SDS011;29660;42.892;24.710;2023-02-15T01:36:35;168.60;;;108.57;;
44000;SDS011;29660;42.892;24.710;2023-02-15T01:41:37;131.60;;;85.25;;
44000;SDS011;29660;42.892;24.710;2023-02-15T01:46:44;146.32;;;100.50;;
44000;SDS011;29660;42.892;24.710;2023-02-15T01:51:52;254.00;;;141.50;;
44000;SDS011;29660;42.892;24.710;2023-02-15T01:57:00;106.13;;;66.85;;
44000;SDS011;29660;42.892;24.710;2023-02-15T02:02:06;133.80;;;84.90;;
44000;SDS011;29660;42.892;24.710;2023-02-15T02:07:11;124.25;;;82.60;;
44000;SDS011;29660;42.892;24.710;2023-02-15T02:12:16;134.18;;;83.78;;
44000;SDS011;29660;42.892;24.710;2023-02-15T02:22:58;120.68;;;76.90;;
44000;SDS011;29660;42.892;24.710;2023-02-15T02:34:00;188.73;;;116.50;;
44000;SDS011;29660;42.892;24.710;2023-02-15T02:39:16;145.70;;;94.95;;
44000;SDS011;29660;42.892;24.710;2023-02-15T02:44:38;188.07;;;114.65;;
44000;SDS011;29660;42.892;24.710;2023-02-15T02:49:46;171.00;;;109.70;;
44000;SDS011;29660;42.892;24.710;2023-02-15T02:54:48;134.07;;;87.25;;
44000;SDS011;29660;42.892;24.710;2023-02-15T02:59:51;95.55;;;63.85;;
44000;SDS011;29660;42.892;24.710;2023-02-15T03:04:57;104.20;;;70.05;;
44000;SDS011;29660;42.892;24.710;2023-02-15T03:10:05;111.88;;;73.00;;
44000;SDS011;29660;42.892;24.710;2023-02-15T03:15:10;102.78;;;68.28;;
44000;SDS011;29660;42.892;24.710;2023-02-15T03:20:36;116.88;;;75.43;;
44000;SDS011;29660;42.892;24.710;2023-02-15T03:25:50;121.97;;;76.90;;
44000;SDS011;29660;42.892;24.710;2023-02-15T03:31:07;109.72;;;69.00;;
44000;SDS011;29660;42.892;24.710;2023-02-15T03:36:14;100.43;;;62.63;;
44000;SDS011;29660;42.892;24.710;2023-02-15T03:41:22;90.20;;;60.33;;
44000;SDS011;29660;42.892;24.710;2023-02-15T03:51:45;69.38;;;47.22;;
44000;SDS011;29660;42.892;24.710;2023-02-15T03:56:50;60.03;;;43.60;;
44000;SDS011;29660;42.892;24.710;2023-02-15T04:02:20;54.92;;;38.72;;
44000;SDS011;29660;42.892;24.710;2023-02-15T04:07:25;84.38;;;51.50;;
44000;SDS011;29660;42.892;24.710;2023-02-15T04:12:27;75.80;;;49.08;;
44000;SDS011;29660;42.892;24.710;2023-02-15T04:17:29;62.20;;;42.25;;
44000;SDS011;29660;42.892;24.710;2023-02-15T04:22:31;59.58;;;42.75;;
44000;SDS011;29660;42.892;24.710;2023-02-15T04:27:52;64.68;;;45.25;;
44000;SDS011;29660;42.892;24.710;2023-02-15T04:32:55;75.45;;;54.20;;
44000;SDS011;29660;42.892;24.710;2023-02-15T04:37:58;84.35;;;59.15;;
44000;SDS011;29660;42.892;24.710;2023-02-15T04:43:00;68.20;;;48.35;;
44000;SDS011;29660;42.892;24.710;2023-02-15T04:48:02;78.43;;;51.95;;
44000;SDS011;29660;42.892;24.710;2023-02-15T04:53:04;89.43;;;62.15;;
44000;SDS011;29660;42.892;24.710;2023-02-15T04:58:06;75.70;;;51.75;;
44000;SDS011;29660;42.892;24.710;2023-02-15T05:03:08;110.90;;;71.35;;
44000;SDS011;29660;42.892;24.710;2023-02-15T05:08:11;96.40;;;65.43;;
44000;SDS011;29660;42.892;24.710;2023-02-15T05:13:13;99.97;;;65.32;;
44000;SDS011;29660;42.892;24.710;2023-02-15T05:18:15;113.38;;;70.72;;
44000;SDS011;29660;42.892;24.710;2023-02-15T05:23:17;81.80;;;56.30;;
44000;SDS011;29660;42.892;24.710;2023-02-15T05:28:20;76.05;;;50.67;;
44000;SDS011;29660;42.892;24.710;2023-02-15T05:33:23;77.43;;;56.25;;
44000;SDS011;29660;42.892;24.710;2023-02-15T05:38:25;101.57;;;66.78;;
44000;SDS011;29660;42.892;24.710;2023-02-15T05:43:27;104.97;;;66.40;;
44000;SDS011;29660;42.892;24.710;2023-02-15T05:48:31;111.95;;;70.90;;
44000;SDS011;29660;42.892;24.710;2023-02-15T05:53:34;123.22;;;77.75;;
44000;SDS011;29660;42.892;24.710;2023-02-15T05:58:38;100.38;;;66.03;;
44000;SDS011;29660;42.892;24.710;2023-02-15T06:03:42;92.30;;;63.55;;
44000;SDS011;29660;42.892;24.710;2023-02-15T06:08:44;93.30;;;66.03;;
44000;SDS011;29660;42.892;24.710;2023-02-15T06:13:46;121.32;;;72.82;;
44000;SDS011;29660;42.892;24.710;2023-02-15T06:18:48;111.90;;;70.47;;
44000;SDS011;29660;42.892;24.710;2023-02-15T06:23:51;95.10;;;68.68;;
44000;SDS011;29660;42.892;24.710;2023-02-15T06:28:52;126.43;;;87.03;;
44000;SDS011;29660;42.892;24.710;2023-02-15T06:33:54;114.40;;;81.55;;
44000;SDS011;29660;42.892;24.710;2023-02-15T06:39:02;139.87;;;96.57;;
44000;SDS011;29660;42.892;24.710;2023-02-15T06:44:05;156.13;;;102.40;;
44000;SDS011;29660;42.892;24.710;2023-02-15T06:49:07;187.13;;;129.50;;
44000;SDS011;29660;42.892;24.710;2023-02-15T06:54:09;223.77;;;148.20;;
44000;SDS011;29660;42.892;24.710;2023-02-15T06:59:11;246.23;;;168.38;;
44000;SDS011;29660;42.892;24.710;2023-02-15T07:04:13;160.13;;;117.15;;
44000;SDS011;29660;42.892;24.710;2023-02-15T07:09:15;149.13;;;107.43;;
44000;SDS011;29660;42.892;24.710;2023-02-15T07:14:18;132.10;;;99.75;;
44000;SDS011;29660;42.892;24.710;2023-02-15T07:19:20;122.30;;;93.03;;
44000;SDS011;29660;42.892;24.710;2023-02-15T07:24:22;122.35;;;91.70;;
44000;SDS011;29660;42.892;24.710;2023-02-15T07:29:24;115.72;;;85.05;;
44000;SDS011;29660;42.892;24.710;2023-02-15T07:34:26;120.50;;;89.05;;
44000;SDS011;29660;42.892;24.710;2023-02-15T07:39:28;124.75;;;90.63;;
44000;SDS011;29660;42.892;24.710;2023-02-15T07:44:30;180.05;;;125.53;;
44000;SDS011;29660;42.892;24.710;2023-02-15T07:49:32;160.73;;;116.13;;
44000;SDS011;29660;42.892;24.710;2023-02-15T07:54:34;166.73;;;123.88;;
44000;SDS011;29660;42.892;24.710;2023-02-15T07:59:36;203.15;;;140.95;;
44000;SDS011;29660;42.892;24.710;2023-02-15T08:04:38;179.02;;;130.52;;
44000;SDS011;29660;42.892;24.710;2023-02-15T08:09:41;150.95;;;114.47;;
44000;SDS011;29660;42.892;24.710;2023-02-15T08:14:42;148.32;;;114.10;;
44000;SDS011;29660;42.892;24.710;2023-02-15T08:19:45;188.02;;;139.98;;
44000;SDS011;29660;42.892;24.710;2023-02-15T08:24:48;186.50;;;138.52;;
44000;SDS011;29660;42.892;24.710;2023-02-15T08:29:50;159.93;;;123.70;;
44000;SDS011;29660;42.892;24.710;2023-02-15T08:34:52;149.48;;;111.25;;
44000;SDS011;29660;42.892;24.710;2023-02-15T08:39:54;160.05;;;116.93;;
44000;SDS011;29660;42.892;24.710;2023-02-15T08:44:56;179.27;;;132.60;;
44000;SDS011;29660;42.892;24.710;2023-02-15T08:49:58;159.38;;;120.88;;
44000;SDS011;29660;42.892;24.710;2023-02-15T08:54:59;146.80;;;119.00;;
44000;SDS011;29660;42.892;24.710;2023-02-15T09:00:02;91.32;;;70.50;;
44000;SDS011;29660;42.892;24.710;2023-02-15T09:05:06;70.28;;;53.95;;
44000;SDS011;29660;42.892;24.710;2023-02-15T09:10:08;59.30;;;46.45;;
44000;SDS011;29660;42.892;24.710;2023-02-15T09:15:11;123.38;;;96.43;;
44000;SDS011;29660;42.892;24.710;2023-02-15T09:20:13;77.75;;;57.30;;
44000;SDS011;29660;42.892;24.710;2023-02-15T09:25:15;50.35;;;38.50;;
44000;SDS011;29660;42.892;24.710;2023-02-15T09:30:17;33.13;;;25.42;;
44000;SDS011;29660;42.892;24.710;2023-02-15T09:35:19;32.20;;;26.15;;
44000;SDS011;29660;42.892;24.710;2023-02-15T09:40:21;63.10;;;38.13;;
44000;SDS011;29660;42.892;24.710;2023-02-15T09:45:31;28.15;;;20.73;;
44000;SDS011;29660;42.892;24.710;2023-02-15T10:27:26;28.95;;;19.15;;
44000;SDS011;29660;42.892;24.710;2023-02-15T10:38:20;17.35;;;13.15;;
44000;SDS011;29660;42.892;24.710;2023-02-15T10:43:47;97.78;;;47.72;;
44000;SDS011;29660;42.892;24.710;2023-02-15T10:49:05;18.05;;;14.27;;
44000;SDS011;29660;42.892;24.710;2023-02-15T11:09:53;18.58;;;14.35;;
44000;SDS011;29660;42.892;24.710;2023-02-15T11:15:32;23.50;;;17.70;;
44000;SDS011;29660;42.892;24.710;2023-02-15T11:20:50;18.85;;;14.90;;
44000;SDS011;29660;42.892;24.710;2023-02-15T11:26:04;17.70;;;12.57;;
44000;SDS011;29660;42.892;24.710;2023-02-15T11:31:21;76.60;;;40.88;;
44000;SDS011;29660;42.892;24.710;2023-02-15T11:36:27;21.33;;;15.88;;
44000;SDS011;29660;42.892;24.710;2023-02-15T11:41:37;22.48;;;14.40;;
44000;SDS011;29660;42.892;24.710;2023-02-15T11:46:43;21.75;;;15.50;;
44000;SDS011;29660;42.892;24.710;2023-02-15T11:51:45;20.95;;;15.18;;
44000;SDS011;29660;42.892;24.710;2023-02-15T11:56:47;15.77;;;12.32;;
44000;SDS011;29660;42.892;24.710;2023-02-15T12:01:49;16.23;;;12.30;;
44000;SDS011;29660;42.892;24.710;2023-02-15T12:07:11;17.15;;;12.60;;
44000;SDS011;29660;42.892;24.710;2023-02-15T12:22:50;17.73;;;11.10;;
44000;SDS011;29660;42.892;24.710;2023-02-15T12:27:54;16.27;;;11.77;;
44000;SDS011;29660;42.892;24.710;2023-02-15T12:33:17;15.02;;;12.32;;
44000;SDS011;29660;42.892;24.710;2023-02-15T12:38:35;16.77;;;12.48;;
44000;SDS011;29660;42.892;24.710;2023-02-15T12:43:37;20.10;;;14.40;;
44000;SDS011;29660;42.892;24.710;2023-02-15T12:48:40;12.93;;;11.13;;
44000;SDS011;29660;42.892;24.710;2023-02-15T12:53:42;14.65;;;11.60;;
44000;SDS011;29660;42.892;24.710;2023-02-15T12:58:45;13.85;;;10.82;;
44000;SDS011;29660;42.892;24.710;2023-02-15T13:03:55;14.57;;;11.65;;
44000;SDS011;29660;42.892;24.710;2023-02-15T13:14:35;17.60;;;12.10;;
44000;SDS011;29660;42.892;24.710;2023-02-15T13:19:42;15.40;;;10.68;;
44000;SDS011;29660;42.892;24.710;2023-02-15T13:24:48;16.45;;;12.75;;
44000;SDS011;29660;42.892;24.710;2023-02-15T13:29:56;16.63;;;12.85;;
44000;SDS011;29660;42.892;24.710;2023-02-15T13:35:03;27.90;;;16.52;;
